createdAt,value
2022-12-31T00:00:40.913Z,54.30
2022-12-31T00:03:10.797Z,53.10
2022-12-31T00:05:40.386Z,55.73
2022-12-31T00:08:08.505Z,57.10
2022-12-31T00:10:41.394Z,56.50
2022-12-31T00:13:09.812Z,58.37
2022-12-31T00:15:37.880Z,57.70
2022-12-31T00:18:06.117Z,59.37
2022-12-31T00:20:34.478Z,57.40
2022-12-31T00:23:03.885Z,58.57
2022-12-31T00:25:31.794Z,58.43
2022-12-31T00:27:59.820Z,59.73
2022-12-31T00:30:27.949Z,60.43
2022-12-31T00:32:56.029Z,59.23
2022-12-31T00:35:24.044Z,58.80
2022-12-31T00:37:53.156Z,59.37
2022-12-31T00:40:22.536Z,58.83
2022-12-31T00:42:50.440Z,58.83
2022-12-31T00:45:18.460Z,61.40
2022-12-31T00:47:46.560Z,60.77
2022-12-31T00:50:14.625Z,62.23
2022-12-31T00:52:42.698Z,60.90
2022-12-31T00:55:10.931Z,58.53
2022-12-31T00:57:40.274Z,63.03
2022-12-31T01:00:09.680Z,58.70
2022-12-31T01:02:37.911Z,58.00
2022-12-31T01:05:08.234Z,61.50
2022-12-31T01:07:38.201Z,62.60
2022-12-31T01:10:07.327Z,60.33
2022-12-31T01:12:35.342Z,59.47
2022-12-31T01:15:05.313Z,60.30
2022-12-31T01:17:33.367Z,60.43
2022-12-31T01:20:01.403Z,61.80
2022-12-31T01:22:29.463Z,63.90
2022-12-31T01:24:57.327Z,62.00
2022-12-31T01:27:25.336Z,61.10
2022-12-31T01:29:53.381Z,63.70
2022-12-31T01:32:22.697Z,65.70
2022-12-31T01:34:50.810Z,62.97
2022-12-31T01:37:18.847Z,63.80
2022-12-31T01:39:46.957Z,63.93
2022-12-31T01:42:15.008Z,63.53
2022-12-31T01:44:52.316Z,67.30
2022-12-31T01:47:33.870Z,71.10
2022-12-31T01:50:07.303Z,67.63
2022-12-31T01:52:39.429Z,65.00
2022-12-31T01:55:14.247Z,67.27
2022-12-31T01:57:43.706Z,67.80
2022-12-31T02:00:12.561Z,66.27
2022-12-31T02:02:42.111Z,67.03
2022-12-31T02:05:19.564Z,68.27
2022-12-31T02:07:50.349Z,68.33
2022-12-31T02:10:18.879Z,64.97
2022-12-31T02:12:47.459Z,63.90
2022-12-31T02:15:15.785Z,64.30
2022-12-31T02:17:54.662Z,67.80
2022-12-31T02:20:49.567Z,62.50
2022-12-31T02:23:35.697Z,62.63
2022-12-31T02:26:41.259Z,66.40
2022-12-31T02:29:39.401Z,64.70
2022-12-31T02:32:14.581Z,64.27
2022-12-31T02:34:49.270Z,64.87
2022-12-31T02:37:19.441Z,65.77
2022-12-31T02:39:48.980Z,65.43
2022-12-31T02:42:17.068Z,65.53
2022-12-31T02:44:45.179Z,63.50
2022-12-31T02:47:28.874Z,63.87
2022-12-31T02:50:08.529Z,68.30
2022-12-31T02:52:49.211Z,65.40
2022-12-31T02:55:24.163Z,65.93
2022-12-31T02:57:57.937Z,65.17
2022-12-31T03:00:43.528Z,65.50
2022-12-31T03:03:13.357Z,68.57
2022-12-31T03:05:44.359Z,69.57
2022-12-31T03:08:12.410Z,66.93
2022-12-31T03:10:40.501Z,68.00
2022-12-31T03:13:07.609Z,65.67
2022-12-31T03:15:36.091Z,68.33
2022-12-31T03:18:08.404Z,67.30
2022-12-31T03:20:57.523Z,67.73
2022-12-31T03:23:28.200Z,71.50
2022-12-31T03:25:56.532Z,68.67
2022-12-31T03:28:26.703Z,71.33
2022-12-31T03:30:57.383Z,70.17
2022-12-31T03:33:26.651Z,71.60
2022-12-31T03:35:56.037Z,75.80
2022-12-31T03:38:24.427Z,72.37
2022-12-31T03:40:54.109Z,72.80
2022-12-31T03:43:22.219Z,73.50
2022-12-31T03:45:52.426Z,73.63
2022-12-31T03:48:21.783Z,74.23
2022-12-31T03:50:49.940Z,72.23
2022-12-31T03:53:19.540Z,72.50
2022-12-31T03:55:51.978Z,76.90
2022-12-31T03:58:20.096Z,77.47
2022-12-31T04:00:48.177Z,77.07
2022-12-31T04:03:16.412Z,73.77
2022-12-31T04:05:44.574Z,76.63
2022-12-31T04:08:12.684Z,74.07
2022-12-31T04:10:42.075Z,76.60
2022-12-31T04:13:10.096Z,74.03
2022-12-31T04:15:38.239Z,76.43
2022-12-31T04:18:06.418Z,73.53
2022-12-31T04:20:34.416Z,75.27
2022-12-31T04:23:02.519Z,74.60
2022-12-31T04:25:30.398Z,73.23
2022-12-31T04:27:59.843Z,76.47
2022-12-31T04:30:27.930Z,76.87
2022-12-31T04:32:56.035Z,75.23
2022-12-31T04:35:24.059Z,74.13
2022-12-31T04:37:52.026Z,74.53
2022-12-31T04:40:20.323Z,77.60
2022-12-31T04:42:48.387Z,73.10
2022-12-31T04:45:17.899Z,74.23
2022-12-31T04:47:46.072Z,74.43
2022-12-31T04:50:14.219Z,72.23
2022-12-31T04:52:43.101Z,74.10
2022-12-31T04:55:11.978Z,69.33
2022-12-31T04:57:40.046Z,70.17
2022-12-31T05:00:09.636Z,69.33
2022-12-31T05:02:39.267Z,70.40
2022-12-31T05:05:08.262Z,66.87
2022-12-31T05:07:36.314Z,68.60
2022-12-31T05:10:04.946Z,68.07
2022-12-31T05:12:32.966Z,64.10
2022-12-31T05:15:01.080Z,64.30
2022-12-31T05:17:29.075Z,67.53
2022-12-31T05:19:58.495Z,66.10
2022-12-31T05:22:32.338Z,62.50
2022-12-31T05:25:01.170Z,60.00
2022-12-31T05:27:31.531Z,61.57
2022-12-31T05:30:00.029Z,60.40
2022-12-31T05:32:28.249Z,59.10
2022-12-31T05:34:56.329Z,57.20
2022-12-31T05:37:25.691Z,61.27
2022-12-31T05:39:53.878Z,58.97
2022-12-31T05:42:21.939Z,59.50
2022-12-31T05:44:50.009Z,60.80
2022-12-31T05:47:18.669Z,62.50
2022-12-31T05:49:46.777Z,60.33
2022-12-31T05:52:15.121Z,60.83
2022-12-31T05:54:44.541Z,58.97
2022-12-31T05:57:12.640Z,58.47
2022-12-31T05:59:40.939Z,56.13
2022-12-31T06:02:08.968Z,58.20
2022-12-31T06:04:37.110Z,60.77
2022-12-31T06:07:05.155Z,59.30
2022-12-31T06:09:33.361Z,60.50
2022-12-31T06:12:02.799Z,61.00
2022-12-31T06:14:30.893Z,61.77
2022-12-31T06:16:58.937Z,61.93
2022-12-31T06:19:27.249Z,59.87
2022-12-31T06:21:55.307Z,61.47
2022-12-31T06:24:23.326Z,60.67
2022-12-31T06:26:52.143Z,59.13
2022-12-31T06:29:21.569Z,60.90
2022-12-31T06:31:49.565Z,60.90
2022-12-31T06:34:17.624Z,59.10
2022-12-31T06:36:45.660Z,61.33
2022-12-31T06:39:13.701Z,58.03
2022-12-31T06:41:41.834Z,60.97
2022-12-31T06:44:09.836Z,58.03
2022-12-31T06:46:39.398Z,59.97
2022-12-31T06:49:07.407Z,59.90
2022-12-31T06:51:35.416Z,56.93
2022-12-31T06:54:04.470Z,55.73
2022-12-31T06:56:34.817Z,56.00
2022-12-31T06:59:04.301Z,58.27
2022-12-31T07:01:44.431Z,55.73
2022-12-31T07:04:35.558Z,58.73
2022-12-31T07:07:11.569Z,56.00
2022-12-31T07:09:52.953Z,58.40
2022-12-31T07:12:36.985Z,57.67
2022-12-31T07:15:11.512Z,57.57
2022-12-31T07:17:49.587Z,57.27
2022-12-31T07:20:19.705Z,56.13
2022-12-31T07:22:48.516Z,56.50
2022-12-31T07:25:18.390Z,55.30
2022-12-31T07:28:02.870Z,54.10
2022-12-31T07:30:40.878Z,56.30
2022-12-31T07:33:44.483Z,56.03
2022-12-31T07:36:23.671Z,55.63
2022-12-31T07:38:58.079Z,55.63
2022-12-31T07:41:42.447Z,54.83
2022-12-31T07:44:25.895Z,59.00
2022-12-31T07:46:57.125Z,57.83
2022-12-31T07:49:28.830Z,57.30
2022-12-31T07:51:57.736Z,54.90
2022-12-31T07:54:26.000Z,55.53
2022-12-31T07:56:54.110Z,53.87
2022-12-31T07:59:35.474Z,54.87
2022-12-31T08:02:15.468Z,55.30
2022-12-31T08:04:54.154Z,58.40
2022-12-31T08:07:31.594Z,60.00
2022-12-31T08:10:04.752Z,58.63
2022-12-31T08:12:36.007Z,59.50
2022-12-31T08:15:12.776Z,58.70
2022-12-31T08:17:41.090Z,58.00
2022-12-31T08:20:14.668Z,59.30
2022-12-31T08:23:08.737Z,59.73
2022-12-31T08:25:41.548Z,57.67
2022-12-31T08:28:21.322Z,55.13
2022-12-31T08:30:59.157Z,63.60
2022-12-31T08:33:47.909Z,61.10
2022-12-31T08:36:25.509Z,56.90
2022-12-31T08:39:16.695Z,56.60
2022-12-31T08:41:46.703Z,59.90
2022-12-31T08:44:24.148Z,58.80
2022-12-31T08:47:00.945Z,58.20
2022-12-31T08:49:31.780Z,59.67
2022-12-31T08:52:02.689Z,62.80
2022-12-31T08:54:31.653Z,61.10
2022-12-31T08:57:05.660Z,58.80
2022-12-31T08:59:42.768Z,58.83
2022-12-31T09:02:26.970Z,58.10
2022-12-31T09:05:06.228Z,57.20
2022-12-31T09:07:41.203Z,57.03
2022-12-31T09:10:19.189Z,55.90
2022-12-31T09:12:56.897Z,55.87
2022-12-31T09:15:31.648Z,59.00
2022-12-31T09:18:03.558Z,58.73
2022-12-31T09:20:43.830Z,57.87
2022-12-31T09:23:15.595Z,59.10
2022-12-31T09:25:50.012Z,59.73
2022-12-31T09:28:27.486Z,61.23
2022-12-31T09:31:04.159Z,60.03
2022-12-31T09:33:43.674Z,61.00
2022-12-31T09:36:18.853Z,63.03
2022-12-31T09:38:54.694Z,60.93
2022-12-31T09:41:48.661Z,62.23
2022-12-31T09:44:58.160Z,56.80
2022-12-31T09:48:02.697Z,59.00
2022-12-31T09:50:58.770Z,60.90
2022-12-31T09:53:50.271Z,58.60
2022-12-31T09:56:27.306Z,58.00
2022-12-31T09:59:04.672Z,53.10
2022-12-31T10:01:43.937Z,53.23
2022-12-31T10:04:46.144Z,51.50
2022-12-31T10:07:30.271Z,48.40
2022-12-31T10:10:07.460Z,49.90
2022-12-31T10:13:06.223Z,47.70
2022-12-31T10:16:02.970Z,48.07
2022-12-31T10:18:43.712Z,43.20
2022-12-31T10:21:25.983Z,47.43
2022-12-31T10:24:19.229Z,49.23
2022-12-31T10:27:10.375Z,46.30
2022-12-31T10:29:46.627Z,44.17
2022-12-31T10:32:20.219Z,44.80
2022-12-31T10:35:10.397Z,42.60
2022-12-31T10:37:46.902Z,40.13
2022-12-31T10:40:24.741Z,39.43
2022-12-31T10:43:37.769Z,40.20
2022-12-31T10:46:37.991Z,38.67
2022-12-31T10:49:33.854Z,39.60
2022-12-31T10:52:42.242Z,37.50
2022-12-31T10:55:46.868Z,37.50
2022-12-31T10:58:50.650Z,37.47
2022-12-31T11:01:28.332Z,36.50
2022-12-31T11:04:29.027Z,37.90
2022-12-31T11:07:26.007Z,41.20
2022-12-31T11:10:37.141Z,41.60
2022-12-31T11:13:57.432Z,42.07
2022-12-31T11:16:49.732Z,42.93
2022-12-31T11:19:24.678Z,44.17
2022-12-31T11:22:15.135Z,44.57
2022-12-31T11:25:02.754Z,44.77
2022-12-31T11:27:50.936Z,42.17
2022-12-31T11:30:23.884Z,36.93
2022-12-31T11:33:11.670Z,37.97
2022-12-31T11:35:57.533Z,33.20
2022-12-31T11:38:29.839Z,29.90
2022-12-31T11:41:03.666Z,29.70
2022-12-31T11:43:40.816Z,27.20
2022-12-31T11:46:44.188Z,28.60
2022-12-31T11:49:29.343Z,25.23
2022-12-31T11:52:28.867Z,26.67
2022-12-31T11:55:13.786Z,27.90
2022-12-31T11:57:47.516Z,28.03
2022-12-31T12:00:20.473Z,27.93
2022-12-31T12:02:50.379Z,26.83
2022-12-31T12:05:22.005Z,29.47
2022-12-31T12:07:50.797Z,31.37
2022-12-31T12:10:29.137Z,31.90
2022-12-31T12:13:01.799Z,29.53
2022-12-31T12:15:33.011Z,28.43
2022-12-31T12:18:09.017Z,27.77
2022-12-31T12:20:41.128Z,27.30
2022-12-31T12:23:17.062Z,26.70
2022-12-31T12:25:46.415Z,27.93
2022-12-31T12:28:22.640Z,27.90
2022-12-31T12:30:56.457Z,27.73
2022-12-31T12:33:25.001Z,34.43
2022-12-31T12:35:54.480Z,28.80
2022-12-31T12:38:24.330Z,27.43
2022-12-31T12:40:58.585Z,25.97
2022-12-31T12:43:29.835Z,25.63
2022-12-31T12:46:01.872Z,26.43
2022-12-31T12:48:36.807Z,26.50
2022-12-31T12:51:23.350Z,27.10
2022-12-31T12:53:58.954Z,25.83
2022-12-31T12:56:38.199Z,28.13
2022-12-31T12:59:30.718Z,28.10
2022-12-31T13:02:12.704Z,27.63
2022-12-31T13:04:55.191Z,26.50
2022-12-31T13:07:37.325Z,25.80
2022-12-31T13:10:24.599Z,27.73
2022-12-31T13:13:23.361Z,27.07
2022-12-31T13:15:56.871Z,25.93
2022-12-31T13:18:38.818Z,27.00
2022-12-31T13:21:22.515Z,26.40
2022-12-31T13:23:57.033Z,27.20
2022-12-31T13:26:32.514Z,27.23
2022-12-31T13:29:03.410Z,26.80
2022-12-31T13:31:35.111Z,27.60
2022-12-31T13:34:09.459Z,28.60
2022-12-31T13:36:41.633Z,32.40
2022-12-31T13:39:16.392Z,30.10
2022-12-31T13:41:50.044Z,30.37
2022-12-31T13:44:24.806Z,31.20
2022-12-31T13:47:01.114Z,29.73
2022-12-31T13:49:34.453Z,32.13
2022-12-31T13:52:11.784Z,29.50
2022-12-31T13:54:46.548Z,28.33
2022-12-31T13:57:28.589Z,27.27
2022-12-31T14:00:02.507Z,28.13
2022-12-31T14:02:37.716Z,27.70
2022-12-31T14:05:15.470Z,26.87
2022-12-31T14:07:50.232Z,25.23
2022-12-31T14:10:27.224Z,24.70
2022-12-31T14:13:02.716Z,25.63
2022-12-31T14:15:36.430Z,24.17
2022-12-31T14:18:10.924Z,23.67
2022-12-31T14:20:46.614Z,22.80
2022-12-31T14:23:25.394Z,21.67
2022-12-31T14:25:58.731Z,20.13
2022-12-31T14:28:31.272Z,19.40
2022-12-31T14:31:09.796Z,19.50
2022-12-31T14:33:48.776Z,19.37
2022-12-31T14:36:36.878Z,19.50
2022-12-31T14:39:22.678Z,19.87
2022-12-31T14:42:04.515Z,21.67
2022-12-31T14:44:50.085Z,20.30
2022-12-31T14:47:31.792Z,20.00
2022-12-31T14:50:07.398Z,19.90
2022-12-31T14:52:37.373Z,20.93
2022-12-31T14:55:25.723Z,20.20
2022-12-31T14:58:26.608Z,19.37
2022-12-31T15:00:54.363Z,21.17
2022-12-31T15:03:33.816Z,19.33
2022-12-31T15:06:11.007Z,19.50
2022-12-31T15:08:54.449Z,19.00
2022-12-31T15:11:38.769Z,19.30
2022-12-31T15:14:37.731Z,18.80
2022-12-31T15:17:15.872Z,18.40
2022-12-31T15:20:13.207Z,18.30
2022-12-31T15:22:46.252Z,18.00
2022-12-31T15:25:25.366Z,19.80
2022-12-31T15:27:54.565Z,17.30
2022-12-31T15:30:39.075Z,18.00
2022-12-31T15:33:16.734Z,17.90
2022-12-31T15:35:51.462Z,17.40
2022-12-31T15:38:36.919Z,17.20
2022-12-31T15:41:17.188Z,17.40
2022-12-31T15:43:50.123Z,17.73
2022-12-31T15:46:21.598Z,37.83
2022-12-31T15:48:56.620Z,17.30
2022-12-31T15:51:30.845Z,18.27
2022-12-31T15:54:00.901Z,17.00
2022-12-31T15:56:35.745Z,16.90
2022-12-31T15:59:06.429Z,17.07
2022-12-31T16:01:38.000Z,16.70
2022-12-31T16:04:08.928Z,16.87
2022-12-31T16:06:38.890Z,16.50
2022-12-31T16:09:17.393Z,16.50
2022-12-31T16:11:45.825Z,19.07
2022-12-31T16:14:19.359Z,16.57
2022-12-31T16:16:55.892Z,16.83
2022-12-31T16:19:33.640Z,18.07
2022-12-31T16:22:07.700Z,16.07
2022-12-31T16:24:48.891Z,17.57
2022-12-31T16:27:25.390Z,17.90
2022-12-31T16:30:00.450Z,17.37
2022-12-31T16:32:35.678Z,16.70
2022-12-31T16:35:07.022Z,19.30
2022-12-31T16:37:38.148Z,16.53
2022-12-31T16:40:18.997Z,17.20
2022-12-31T16:42:48.618Z,17.10
2022-12-31T16:45:30.268Z,17.50
2022-12-31T16:48:03.385Z,17.83
2022-12-31T16:50:31.537Z,18.13
2022-12-31T16:53:04.006Z,17.77
2022-12-31T16:55:33.145Z,17.57
2022-12-31T16:58:07.527Z,15.93
2022-12-31T17:00:37.071Z,15.90
2022-12-31T17:03:14.169Z,15.70
2022-12-31T17:05:59.932Z,17.03
2022-12-31T17:08:29.884Z,16.77
2022-12-31T17:10:57.912Z,15.90
2022-12-31T17:13:30.586Z,16.57
2022-12-31T17:16:00.151Z,17.43
2022-12-31T17:18:36.661Z,15.90
2022-12-31T17:21:09.399Z,15.87
2022-12-31T17:23:40.513Z,16.20
2022-12-31T17:26:11.995Z,15.70
2022-12-31T17:28:44.169Z,16.10
2022-12-31T17:31:31.596Z,17.53
2022-12-31T17:34:23.340Z,15.77
2022-12-31T17:37:02.131Z,17.03
2022-12-31T17:39:47.225Z,17.20
2022-12-31T17:42:25.769Z,16.93
2022-12-31T17:44:57.926Z,16.90
2022-12-31T17:47:33.725Z,15.70
2022-12-31T17:50:09.778Z,18.50
2022-12-31T17:52:37.801Z,17.50
2022-12-31T17:55:06.551Z,17.77
2022-12-31T17:57:36.144Z,17.40
2022-12-31T18:00:06.155Z,18.73
2022-12-31T18:02:34.301Z,16.60
2022-12-31T18:05:02.391Z,18.00
2022-12-31T18:07:31.783Z,17.60
2022-12-31T18:09:59.846Z,16.70
2022-12-31T18:12:27.946Z,16.10
2022-12-31T18:14:55.983Z,16.30
2022-12-31T18:17:24.168Z,18.13
2022-12-31T18:20:04.727Z,17.20
2022-12-31T18:22:35.443Z,17.23
2022-12-31T18:25:04.227Z,16.47
2022-12-31T18:27:34.000Z,15.87
2022-12-31T18:30:05.529Z,17.13
2022-12-31T18:32:35.170Z,17.10
2022-12-31T18:35:03.254Z,17.77
2022-12-31T18:37:32.630Z,16.23
2022-12-31T18:40:02.021Z,18.97
2022-12-31T18:42:30.275Z,17.50
2022-12-31T18:44:58.505Z,15.90
2022-12-31T18:47:26.560Z,18.27
2022-12-31T18:49:54.907Z,15.87
2022-12-31T18:52:25.098Z,16.67
2022-12-31T18:54:53.169Z,17.20
2022-12-31T18:57:22.610Z,17.07
2022-12-31T18:59:50.897Z,18.77
2022-12-31T19:02:21.563Z,15.73
2022-12-31T19:04:50.608Z,15.43
2022-12-31T19:07:18.715Z,15.60
2022-12-31T19:09:49.095Z,17.70
2022-12-31T19:12:19.660Z,19.27
2022-12-31T19:14:49.081Z,15.60
2022-12-31T19:17:17.579Z,16.57
2022-12-31T19:19:45.618Z,17.80
2022-12-31T19:22:16.659Z,16.57
2022-12-31T19:24:44.728Z,15.70
2022-12-31T19:27:13.019Z,41.80
2022-12-31T19:29:41.090Z,16.70
2022-12-31T19:32:10.579Z,18.00
2022-12-31T19:34:38.667Z,16.30
2022-12-31T19:37:06.724Z,16.40
2022-12-31T19:39:34.830Z,16.10
2022-12-31T19:42:02.872Z,16.87
2022-12-31T19:44:30.959Z,16.40
2022-12-31T19:46:58.981Z,16.60
2022-12-31T19:49:28.516Z,17.67
2022-12-31T19:51:56.579Z,16.00
2022-12-31T19:54:24.664Z,17.87
2022-12-31T19:56:52.741Z,16.20
2022-12-31T19:59:20.810Z,17.20
2022-12-31T20:01:48.922Z,17.77
2022-12-31T20:04:18.175Z,17.57
2022-12-31T20:06:47.684Z,16.10
2022-12-31T20:09:16.277Z,17.17
2022-12-31T20:11:44.438Z,18.10
2022-12-31T20:14:12.972Z,18.03
2022-12-31T20:16:41.034Z,16.87
2022-12-31T20:19:10.741Z,15.63
2022-12-31T20:21:38.830Z,16.07
2022-12-31T20:24:09.000Z,16.60
2022-12-31T20:26:37.136Z,16.20
2022-12-31T20:29:05.138Z,16.30
2022-12-31T20:31:33.411Z,18.37
2022-12-31T20:34:01.521Z,17.10
2022-12-31T20:36:29.602Z,17.63
2022-12-31T20:38:59.150Z,17.87
2022-12-31T20:41:28.507Z,16.20
2022-12-31T20:43:56.572Z,17.20
2022-12-31T20:46:27.108Z,17.67
2022-12-31T20:48:57.009Z,16.30
2022-12-31T20:51:26.058Z,16.37
2022-12-31T20:53:56.244Z,16.60
2022-12-31T20:56:25.577Z,17.00
2022-12-31T20:58:54.925Z,16.93
2022-12-31T21:01:23.283Z,17.70
2022-12-31T21:04:07.836Z,16.90
2022-12-31T21:06:36.933Z,18.87
2022-12-31T21:09:07.719Z,17.13
2022-12-31T21:11:53.794Z,17.37
2022-12-31T21:14:23.313Z,17.57
2022-12-31T21:16:51.818Z,16.43
2022-12-31T21:19:19.907Z,16.50
2022-12-31T21:21:48.251Z,17.30
2022-12-31T21:24:23.294Z,17.10
2022-12-31T21:26:52.078Z,17.00
2022-12-31T21:29:20.143Z,18.30
2022-12-31T21:31:49.779Z,16.80
2022-12-31T21:34:17.878Z,17.70
2022-12-31T21:36:45.975Z,20.17
2022-12-31T21:39:14.142Z,19.53
2022-12-31T21:41:54.310Z,16.97
2022-12-31T21:44:23.834Z,17.10
2022-12-31T21:47:33.320Z,17.67
2022-12-31T21:49:44.589Z,17.50
2022-12-31T21:52:27.619Z,17.17
2022-12-31T21:55:13.863Z,17.83
2022-12-31T21:58:15.556Z,18.13
2022-12-31T22:00:48.884Z,17.50
2022-12-31T22:03:28.227Z,16.40
2022-12-31T22:05:59.539Z,17.27
2022-12-31T22:08:28.610Z,16.67
2022-12-31T22:10:56.712Z,19.83
2022-12-31T22:13:24.765Z,16.27
2022-12-31T22:16:00.232Z,17.37
2022-12-31T22:18:35.606Z,17.60
2022-12-31T22:21:05.968Z,17.50
2022-12-31T22:23:35.447Z,17.20
2022-12-31T22:26:04.688Z,17.20
2022-12-31T22:28:38.736Z,18.57
2022-12-31T22:31:07.651Z,17.80
2022-12-31T22:33:37.084Z,17.80
2022-12-31T22:36:06.871Z,16.93
2022-12-31T22:38:35.599Z,16.93
2022-12-31T22:41:05.975Z,16.30
2022-12-31T22:43:34.487Z,17.50
2022-12-31T22:46:10.795Z,16.57
2022-12-31T22:48:40.919Z,18.00
2022-12-31T22:51:10.597Z,18.90
2022-12-31T22:53:39.649Z,16.87
2022-12-31T22:56:09.726Z,18.83
2022-12-31T22:58:38.545Z,17.80
2022-12-31T23:01:07.955Z,17.73
2022-12-31T23:03:36.297Z,18.10
2022-12-31T23:06:05.988Z,27.67
2022-12-31T23:08:34.060Z,28.97
2022-12-31T23:11:01.238Z,31.63
2022-12-31T23:13:51.435Z,30.67
2022-12-31T23:16:37.695Z,25.30
2022-12-31T23:19:23.876Z,26.03
2022-12-31T23:22:10.933Z,28.37
2022-12-31T23:24:39.829Z,29.27
2022-12-31T23:27:08.822Z,25.13
2022-12-31T23:29:45.511Z,27.23
2022-12-31T23:32:14.127Z,21.77
2022-12-31T23:34:42.216Z,24.23
2022-12-31T23:37:11.610Z,19.30
2022-12-31T23:39:39.806Z,19.80
2022-12-31T23:42:08.076Z,21.30
2022-12-31T23:44:36.139Z,20.87
2022-12-31T23:47:04.346Z,23.30
2022-12-31T23:49:34.161Z,22.53
2022-12-31T23:52:02.286Z,20.97
2022-12-31T23:54:31.724Z,21.23
2022-12-31T23:56:59.826Z,19.67
2022-12-31T23:59:27.873Z,18.67
